createdAt,value
2022-11-19T00:00:29.506Z,5.97
2022-11-19T00:03:04.256Z,6.57
2022-11-19T00:05:32.593Z,10.67
2022-11-19T00:08:02.115Z,12.67
2022-11-19T00:10:30.350Z,14.13
2022-11-19T00:13:00.048Z,14.30
2022-11-19T00:15:28.282Z,12.33
2022-11-19T00:17:57.985Z,15.50
2022-11-19T00:20:26.382Z,9.73
2022-11-19T00:22:58.508Z,10.30
2022-11-19T00:25:30.552Z,13.87
2022-11-19T00:27:59.699Z,12.30
2022-11-19T00:30:48.912Z,9.83
2022-11-19T00:33:16.860Z,11.73
2022-11-19T00:35:45.800Z,10.90
2022-11-19T00:38:14.003Z,12.40
2022-11-19T00:40:44.208Z,11.37
2022-11-19T00:43:29.571Z,11.53
2022-11-19T00:45:57.728Z,12.57
2022-11-19T00:48:28.888Z,12.63
2022-11-19T00:50:57.266Z,14.10
2022-11-19T00:53:25.554Z,13.90
2022-11-19T00:55:55.235Z,14.90
2022-11-19T00:58:23.450Z,17.10
2022-11-19T01:00:52.494Z,15.37
2022-11-19T01:03:20.699Z,15.30
2022-11-19T01:05:49.147Z,15.67
2022-11-19T01:08:17.419Z,14.90
2022-11-19T01:10:46.025Z,15.20
2022-11-19T01:13:34.980Z,15.63
2022-11-19T01:16:04.344Z,16.10
2022-11-19T01:18:32.911Z,14.20
2022-11-19T01:21:01.249Z,15.10
2022-11-19T01:23:30.043Z,13.73
2022-11-19T01:25:59.072Z,14.73
2022-11-19T01:28:29.083Z,14.77
2022-11-19T01:30:57.516Z,15.33
2022-11-19T01:33:27.201Z,14.30
2022-11-19T01:36:03.313Z,14.83
2022-11-19T01:38:32.502Z,15.30
2022-11-19T01:41:02.908Z,15.07
2022-11-19T01:43:44.314Z,15.80
2022-11-19T01:46:13.705Z,14.43
2022-11-19T01:48:47.894Z,15.93
2022-11-19T01:51:21.023Z,14.60
2022-11-19T01:53:51.048Z,15.23
2022-11-19T01:56:23.850Z,14.63
2022-11-19T01:58:58.407Z,14.87
2022-11-19T02:01:27.037Z,15.60
2022-11-19T02:03:55.944Z,14.97
2022-11-19T02:06:24.156Z,13.80
2022-11-19T02:08:53.378Z,14.77
2022-11-19T02:12:06.849Z,13.37
2022-11-19T02:15:14.251Z,13.07
2022-11-19T02:18:03.583Z,13.40
2022-11-19T02:20:58.536Z,12.80
2022-11-19T02:24:04.040Z,10.77
2022-11-19T02:27:09.482Z,11.27
2022-11-19T02:29:56.127Z,11.40
2022-11-19T02:32:32.234Z,11.93
2022-11-19T02:35:07.047Z,13.13
2022-11-19T02:37:42.871Z,12.87
2022-11-19T02:40:16.541Z,12.93
2022-11-19T02:42:51.119Z,13.30
2022-11-19T02:45:25.725Z,13.53
2022-11-19T02:47:56.321Z,14.07
2022-11-19T02:50:29.262Z,13.97
2022-11-19T02:52:58.669Z,15.00
2022-11-19T02:55:26.913Z,14.37
2022-11-19T02:58:00.787Z,14.07
2022-11-19T03:00:55.965Z,13.33
2022-11-19T03:03:38.502Z,12.63
2022-11-19T03:06:12.783Z,13.73
2022-11-19T03:08:41.030Z,12.50
2022-11-19T03:11:17.092Z,15.87
2022-11-19T03:14:11.424Z,13.70
2022-11-19T03:16:44.891Z,15.83
2022-11-19T03:19:32.492Z,14.87
2022-11-19T03:22:06.210Z,15.03
2022-11-19T03:24:38.611Z,16.57
2022-11-19T03:27:11.629Z,15.63
2022-11-19T03:29:44.850Z,15.47
2022-11-19T03:32:18.650Z,15.57
2022-11-19T03:34:49.518Z,15.07
2022-11-19T03:37:21.837Z,14.23
2022-11-19T03:39:53.582Z,15.67
2022-11-19T03:42:23.181Z,15.43
2022-11-19T03:44:54.398Z,14.33
2022-11-19T03:47:26.898Z,16.30
2022-11-19T03:50:02.383Z,16.53
2022-11-19T03:52:30.774Z,7.97
2022-11-19T03:54:59.115Z,4.83
2022-11-19T03:57:28.526Z,3.37
2022-11-19T03:59:56.718Z,1.50
2022-11-19T04:02:26.285Z,0.90
2022-11-19T04:04:54.498Z,0.73
2022-11-19T04:07:24.598Z,0.50
2022-11-19T04:09:53.001Z,0.50
2022-11-19T04:12:23.556Z,0.40
2022-11-19T04:14:52.823Z,0.50
2022-11-19T04:17:21.617Z,0.40
2022-11-19T04:19:51.171Z,0.30
2022-11-19T04:22:19.609Z,0.40
2022-11-19T04:24:47.732Z,0.40
2022-11-19T04:27:15.923Z,0.40
2022-11-19T04:29:44.058Z,0.50
2022-11-19T04:32:12.218Z,0.60
2022-11-19T04:34:40.358Z,0.70
2022-11-19T04:37:10.270Z,0.60
2022-11-19T04:39:38.429Z,0.60
2022-11-19T04:42:06.680Z,0.60
2022-11-19T04:44:35.173Z,0.50
2022-11-19T04:47:03.338Z,0.57
2022-11-19T04:49:31.548Z,0.53
2022-11-19T04:51:59.883Z,0.60
2022-11-19T04:54:29.365Z,0.53
2022-11-19T04:56:57.548Z,0.50
2022-11-19T04:59:25.718Z,0.50
2022-11-19T05:01:54.552Z,0.50
2022-11-19T05:04:23.321Z,0.50
2022-11-19T05:06:52.878Z,0.53
2022-11-19T05:09:21.664Z,0.50
2022-11-19T05:11:51.487Z,0.40
2022-11-19T05:14:19.929Z,0.50
2022-11-19T05:16:48.043Z,0.40
2022-11-19T05:19:16.182Z,0.50
2022-11-19T05:21:44.649Z,0.30
2022-11-19T05:24:12.868Z,0.40
2022-11-19T05:26:41.023Z,0.40
2022-11-19T05:29:10.916Z,0.50
2022-11-19T05:31:39.037Z,0.40
2022-11-19T05:34:07.314Z,0.40
2022-11-19T05:36:35.471Z,0.30
2022-11-19T05:39:05.004Z,0.20
2022-11-19T05:41:33.333Z,0.30
2022-11-19T05:44:01.595Z,0.40
2022-11-19T05:46:31.161Z,0.40
2022-11-19T05:48:59.992Z,0.30
2022-11-19T05:51:28.165Z,0.40
2022-11-19T05:53:56.323Z,0.47
2022-11-19T05:56:24.546Z,0.47
2022-11-19T05:58:52.686Z,0.40
2022-11-19T06:01:27.059Z,0.40
2022-11-19T06:03:56.886Z,0.40
2022-11-19T06:06:25.921Z,0.40
2022-11-19T06:08:54.105Z,0.37
2022-11-19T06:11:39.993Z,0.50
2022-11-19T06:14:09.455Z,0.47
2022-11-19T06:16:37.584Z,0.47
2022-11-19T06:19:07.388Z,0.47
2022-11-19T06:21:35.512Z,0.50
2022-11-19T06:24:04.705Z,0.40
2022-11-19T06:26:32.865Z,0.50
2022-11-19T06:29:01.343Z,0.40
2022-11-19T06:31:29.915Z,0.50
2022-11-19T06:33:58.246Z,0.63
2022-11-19T06:36:29.161Z,0.80
2022-11-19T06:39:01.518Z,1.00
2022-11-19T06:41:29.739Z,0.97
2022-11-19T06:43:58.249Z,1.10
2022-11-19T06:46:26.341Z,1.17
2022-11-19T06:48:54.551Z,1.17
2022-11-19T06:51:22.719Z,1.33
2022-11-19T06:53:52.945Z,1.40
2022-11-19T06:56:21.120Z,1.23
2022-11-19T06:58:49.254Z,1.43
2022-11-19T07:01:17.409Z,1.60
2022-11-19T07:03:46.293Z,1.53
2022-11-19T07:06:14.359Z,1.50
2022-11-19T07:08:42.558Z,1.77
2022-11-19T07:11:27.559Z,1.67
2022-11-19T07:13:59.747Z,1.77
2022-11-19T07:16:30.749Z,2.33
2022-11-19T07:19:00.096Z,3.20
2022-11-19T07:21:29.334Z,3.37
2022-11-19T07:23:58.124Z,4.27
2022-11-19T07:26:28.435Z,4.77
2022-11-19T07:29:00.515Z,5.27
2022-11-19T07:31:31.655Z,6.37
2022-11-19T07:34:00.136Z,6.57
2022-11-19T07:36:28.466Z,6.70
2022-11-19T07:38:56.617Z,7.13
2022-11-19T07:41:43.094Z,8.13
2022-11-19T07:44:12.625Z,7.87
2022-11-19T07:46:41.526Z,7.53
2022-11-19T07:49:09.657Z,8.60
2022-11-19T07:51:37.865Z,8.30
2022-11-19T07:54:06.366Z,7.63
2022-11-19T07:56:34.827Z,7.63
2022-11-19T07:59:03.089Z,7.90
2022-11-19T08:01:32.863Z,7.93
2022-11-19T08:04:01.127Z,8.23
2022-11-19T08:06:30.019Z,8.40
2022-11-19T08:08:58.729Z,8.47
2022-11-19T08:11:32.706Z,9.47
2022-11-19T08:14:02.299Z,9.93
2022-11-19T08:16:50.951Z,9.87
2022-11-19T08:19:19.675Z,9.23
2022-11-19T08:21:48.987Z,10.00
2022-11-19T08:24:19.795Z,10.47
2022-11-19T08:26:49.271Z,11.40
2022-11-19T08:29:20.061Z,10.60
2022-11-19T08:31:49.903Z,10.60
2022-11-19T08:34:19.416Z,11.10
2022-11-19T08:36:49.299Z,11.33
2022-11-19T08:39:17.605Z,11.53
2022-11-19T08:42:03.331Z,11.27
2022-11-19T08:44:32.135Z,12.17
2022-11-19T08:47:01.643Z,13.10
2022-11-19T08:49:29.935Z,11.60
2022-11-19T08:51:58.701Z,11.30
2022-11-19T08:54:27.135Z,11.90
2022-11-19T08:56:55.495Z,11.50
2022-11-19T08:59:24.595Z,12.20
2022-11-19T09:01:52.865Z,11.07
2022-11-19T09:04:23.803Z,10.90
2022-11-19T09:06:52.311Z,10.73
2022-11-19T09:09:21.145Z,9.70
2022-11-19T09:11:49.435Z,10.57
2022-11-19T09:14:18.206Z,10.37
2022-11-19T09:16:46.748Z,10.53
2022-11-19T09:19:15.159Z,10.23
2022-11-19T09:21:44.876Z,9.93
2022-11-19T09:24:13.406Z,8.73
2022-11-19T09:26:41.785Z,7.97
2022-11-19T09:29:10.417Z,8.17
2022-11-19T09:31:38.801Z,7.53
2022-11-19T09:34:07.033Z,7.27
2022-11-19T09:36:35.168Z,7.20
2022-11-19T09:39:05.315Z,6.10
2022-11-19T09:41:50.251Z,5.03
2022-11-19T09:44:34.432Z,3.37
2022-11-19T09:47:15.194Z,3.50
2022-11-19T09:49:50.510Z,3.30
2022-11-19T09:52:24.393Z,3.00
2022-11-19T09:54:57.094Z,3.40
2022-11-19T09:57:33.534Z,3.10
2022-11-19T10:00:03.118Z,3.03
2022-11-19T10:02:31.456Z,3.93
2022-11-19T10:05:00.781Z,3.73
2022-11-19T10:07:43.286Z,3.80
2022-11-19T10:10:28.966Z,4.57
2022-11-19T10:13:17.798Z,4.27
2022-11-19T10:16:04.498Z,5.00
2022-11-19T10:18:45.593Z,5.13
2022-11-19T10:21:19.665Z,5.70
2022-11-19T10:23:52.925Z,6.07
2022-11-19T10:26:28.401Z,6.13
2022-11-19T10:28:58.381Z,7.10
2022-11-19T10:31:34.038Z,6.43
2022-11-19T10:34:08.496Z,7.73
2022-11-19T10:36:43.516Z,6.83
2022-11-19T10:39:19.641Z,7.57
2022-11-19T10:42:04.615Z,7.33
2022-11-19T10:44:41.471Z,6.80
2022-11-19T10:47:18.184Z,5.90
2022-11-19T10:49:46.466Z,5.00
2022-11-19T10:52:24.627Z,4.27
2022-11-19T10:54:56.462Z,4.90
2022-11-19T10:57:27.060Z,4.63
2022-11-19T10:59:56.074Z,5.03
2022-11-19T11:02:32.303Z,5.13
2022-11-19T11:05:22.433Z,4.67
2022-11-19T11:07:57.930Z,4.57
2022-11-19T11:10:48.157Z,5.67
2022-11-19T11:13:51.424Z,6.07
2022-11-19T11:16:24.017Z,6.60
2022-11-19T11:18:56.086Z,6.37
2022-11-19T11:21:36.317Z,6.70
2022-11-19T11:24:07.875Z,7.10
2022-11-19T11:26:37.969Z,8.07
2022-11-19T11:29:25.417Z,8.87
2022-11-19T11:31:53.896Z,9.77
2022-11-19T11:34:33.629Z,8.47
2022-11-19T11:37:04.470Z,9.13
2022-11-19T11:39:36.011Z,10.17
2022-11-19T11:42:06.722Z,10.23
2022-11-19T11:44:39.655Z,11.03
2022-11-19T11:47:14.643Z,10.40
2022-11-19T11:49:45.919Z,10.43
2022-11-19T11:52:23.146Z,10.07
2022-11-19T11:54:57.927Z,10.07
2022-11-19T11:57:28.171Z,11.97
2022-11-19T11:59:58.577Z,10.73
2022-11-19T12:02:31.111Z,10.83
2022-11-19T12:05:04.217Z,11.43
2022-11-19T12:08:05.136Z,12.43
2022-11-19T12:10:42.807Z,10.43
2022-11-19T12:13:44.248Z,11.13
2022-11-19T12:16:22.916Z,11.27
2022-11-19T12:19:07.098Z,10.83
2022-11-19T12:21:44.010Z,12.00
2022-11-19T12:24:30.579Z,10.13
2022-11-19T12:27:07.707Z,8.97
2022-11-19T12:29:47.838Z,9.47
2022-11-19T12:32:45.072Z,10.97
2022-11-19T12:35:24.866Z,10.20
2022-11-19T12:38:17.897Z,9.30
2022-11-19T12:40:55.623Z,8.50
2022-11-19T12:43:39.001Z,8.73
2022-11-19T12:46:14.285Z,8.80
2022-11-19T12:49:04.803Z,8.83
2022-11-19T12:51:46.687Z,7.83
2022-11-19T12:54:33.364Z,7.03
2022-11-19T12:57:17.956Z,7.80
2022-11-19T13:00:02.809Z,8.10
2022-11-19T13:02:35.754Z,7.63
2022-11-19T13:05:09.724Z,6.97
2022-11-19T13:07:42.663Z,7.57
2022-11-19T13:10:17.375Z,6.90
2022-11-19T13:12:50.262Z,6.80
2022-11-19T13:15:23.427Z,7.20
2022-11-19T13:17:54.713Z,8.23
2022-11-19T13:20:29.824Z,8.23
2022-11-19T13:23:07.894Z,8.70
2022-11-19T13:25:40.221Z,8.93
2022-11-19T13:28:17.070Z,8.30
2022-11-19T13:30:49.585Z,7.60
2022-11-19T13:33:24.290Z,8.17
2022-11-19T13:36:03.602Z,9.20
2022-11-19T13:38:44.669Z,9.97
2022-11-19T13:41:17.019Z,10.43
2022-11-19T13:44:03.601Z,11.43
2022-11-19T13:46:39.295Z,11.90
2022-11-19T13:49:18.317Z,11.07
2022-11-19T13:51:51.116Z,11.37
2022-11-19T13:54:26.953Z,11.57
2022-11-19T13:56:58.663Z,12.47
2022-11-19T13:59:38.768Z,12.50
2022-11-19T14:02:49.284Z,12.97
2022-11-19T14:05:35.412Z,12.13
2022-11-19T14:08:30.434Z,13.53
2022-11-19T14:11:12.986Z,13.37
2022-11-19T14:13:53.753Z,13.10
2022-11-19T14:16:46.504Z,12.90
2022-11-19T14:19:34.430Z,12.73
2022-11-19T14:22:40.407Z,12.60
2022-11-19T14:25:37.256Z,13.10
2022-11-19T14:28:41.392Z,13.00
2022-11-19T14:31:10.076Z,12.17
2022-11-19T14:34:04.128Z,12.00
2022-11-19T14:36:45.051Z,11.97
2022-11-19T14:39:21.080Z,11.60
2022-11-19T14:42:14.834Z,11.87
2022-11-19T14:44:43.714Z,12.37
2022-11-19T14:47:45.131Z,11.57
2022-11-19T14:50:27.732Z,12.87
2022-11-19T14:52:58.365Z,12.53
2022-11-19T14:55:29.523Z,12.33
2022-11-19T14:58:01.878Z,11.60
2022-11-19T15:00:34.454Z,12.50
2022-11-19T15:03:06.642Z,11.03
2022-11-19T15:05:36.751Z,11.07
2022-11-19T15:08:43.163Z,11.03
2022-11-19T15:11:12.676Z,9.93
2022-11-19T15:13:45.498Z,10.93
2022-11-19T15:16:17.048Z,10.80
2022-11-19T15:19:08.343Z,10.30
2022-11-19T15:22:19.250Z,11.47
2022-11-19T15:25:15.053Z,11.27
2022-11-19T15:28:02.653Z,11.53
2022-11-19T15:30:46.253Z,11.60
2022-11-19T15:33:46.438Z,11.77
2022-11-19T15:36:39.818Z,11.53
2022-11-19T15:39:18.234Z,10.50
2022-11-19T15:42:01.403Z,11.13
2022-11-19T15:44:44.468Z,11.80
2022-11-19T15:47:19.340Z,11.57
2022-11-19T15:49:54.114Z,11.73
2022-11-19T15:52:28.951Z,11.17
2022-11-19T15:55:12.094Z,12.53
2022-11-19T15:57:44.631Z,12.53
2022-11-19T16:00:18.902Z,12.33
2022-11-19T16:02:51.147Z,11.00
2022-11-19T16:05:23.455Z,11.80
2022-11-19T16:07:52.305Z,11.73
2022-11-19T16:10:24.985Z,12.40
2022-11-19T16:13:16.954Z,11.30
2022-11-19T16:16:09.791Z,12.83
2022-11-19T16:18:54.614Z,13.13
2022-11-19T16:21:27.539Z,12.13
2022-11-19T16:24:14.067Z,13.17
2022-11-19T16:26:48.802Z,13.20
2022-11-19T16:29:28.657Z,13.03
2022-11-19T16:32:03.163Z,12.07
2022-11-19T16:34:34.909Z,13.93
2022-11-19T16:37:03.758Z,13.23
2022-11-19T16:39:34.856Z,14.07
2022-11-19T16:42:20.016Z,14.40
2022-11-19T16:44:51.421Z,13.80
2022-11-19T16:47:26.375Z,14.80
2022-11-19T16:50:01.409Z,15.30
2022-11-19T16:52:41.152Z,14.47
2022-11-19T16:55:48.436Z,15.13
2022-11-19T16:58:26.866Z,15.10
2022-11-19T17:00:59.793Z,13.60
2022-11-19T17:03:37.477Z,14.60
2022-11-19T17:06:09.911Z,14.03
2022-11-19T17:08:39.665Z,14.90
2022-11-19T17:11:41.191Z,14.50
2022-11-19T17:14:22.026Z,13.63
2022-11-19T17:16:52.690Z,14.03
2022-11-19T17:19:26.517Z,13.43
2022-11-19T17:22:01.230Z,13.40
2022-11-19T17:24:33.191Z,14.07
2022-11-19T17:27:01.900Z,14.03
2022-11-19T17:29:30.200Z,15.77
2022-11-19T17:31:58.717Z,14.43
2022-11-19T17:34:33.403Z,15.33
2022-11-19T17:37:03.307Z,15.07
2022-11-19T17:39:32.010Z,16.27
2022-11-19T17:42:29.849Z,14.57
2022-11-19T17:44:58.833Z,15.73
2022-11-19T17:47:27.072Z,15.80
2022-11-19T17:49:55.509Z,15.13
2022-11-19T17:52:27.359Z,13.70
2022-11-19T17:54:59.066Z,15.87
2022-11-19T17:57:27.281Z,15.30
2022-11-19T17:59:55.643Z,14.43
2022-11-19T18:02:24.242Z,15.43
2022-11-19T18:04:53.099Z,15.40
2022-11-19T18:07:21.521Z,14.23
2022-11-19T18:09:51.524Z,15.33
2022-11-19T18:12:21.762Z,15.77
2022-11-19T18:14:50.039Z,14.87
2022-11-19T18:17:18.295Z,14.60
2022-11-19T18:19:46.426Z,16.03
2022-11-19T18:22:21.729Z,15.83
2022-11-19T18:24:53.494Z,16.30
2022-11-19T18:27:21.792Z,16.13
2022-11-19T18:29:50.050Z,15.97
2022-11-19T18:32:18.265Z,15.63
2022-11-19T18:34:48.093Z,15.90
2022-11-19T18:37:19.620Z,16.07
2022-11-19T18:39:54.350Z,14.27
2022-11-19T18:42:25.870Z,15.67
2022-11-19T18:44:53.849Z,15.23
2022-11-19T18:47:24.578Z,16.17
2022-11-19T18:49:54.529Z,15.10
2022-11-19T18:52:26.225Z,16.57
2022-11-19T18:54:55.845Z,15.73
2022-11-19T18:57:26.144Z,16.13
2022-11-19T18:59:54.563Z,15.90
2022-11-19T19:02:22.768Z,17.00
2022-11-19T19:04:57.271Z,16.80
2022-11-19T19:07:30.027Z,16.90
2022-11-19T19:09:58.734Z,16.53
2022-11-19T19:12:33.381Z,16.43
2022-11-19T19:15:03.332Z,17.67
2022-11-19T19:17:32.114Z,16.30
2022-11-19T19:20:00.221Z,16.00
2022-11-19T19:22:29.649Z,15.80
2022-11-19T19:24:58.439Z,16.43
2022-11-19T19:27:28.580Z,14.83
2022-11-19T19:29:56.751Z,16.07
2022-11-19T19:32:25.352Z,15.00
2022-11-19T19:34:53.575Z,15.70
2022-11-19T19:37:21.790Z,15.43
2022-11-19T19:39:49.953Z,14.67
2022-11-19T19:42:20.540Z,16.03
2022-11-19T19:44:50.176Z,13.87
2022-11-19T19:47:18.746Z,15.07
2022-11-19T19:49:51.179Z,13.10
2022-11-19T19:52:19.312Z,14.10
2022-11-19T19:54:47.496Z,13.73
2022-11-19T19:57:16.344Z,12.80
2022-11-19T19:59:45.173Z,12.57
2022-11-19T20:02:14.715Z,11.87
2022-11-19T20:04:43.172Z,11.83
2022-11-19T20:07:11.321Z,12.23
2022-11-19T20:09:39.822Z,12.63
2022-11-19T20:12:08.338Z,13.00
2022-11-19T20:14:37.104Z,13.43
2022-11-19T20:17:05.505Z,12.60
2022-11-19T20:19:35.285Z,12.43
2022-11-19T20:22:06.351Z,13.30
2022-11-19T20:24:34.547Z,12.67
2022-11-19T20:27:03.298Z,13.03
2022-11-19T20:29:31.518Z,12.70
2022-11-19T20:31:59.892Z,13.07
2022-11-19T20:34:28.290Z,12.37
2022-11-19T20:36:57.996Z,12.63
2022-11-19T20:39:26.268Z,13.70
2022-11-19T20:42:11.950Z,12.57
2022-11-19T20:44:40.174Z,12.73
2022-11-19T20:47:08.345Z,12.80
2022-11-19T20:49:39.715Z,12.50
2022-11-19T20:52:10.844Z,12.43
2022-11-19T20:54:39.298Z,12.10
2022-11-19T20:57:07.619Z,10.97
2022-11-19T20:59:35.807Z,12.50
2022-11-19T21:02:04.430Z,12.20
2022-11-19T21:04:36.532Z,11.80
2022-11-19T21:07:05.447Z,12.13
2022-11-19T21:09:35.617Z,12.83
2022-11-19T21:12:04.044Z,12.10
2022-11-19T21:14:35.079Z,14.00
2022-11-19T21:17:03.199Z,13.27
2022-11-19T21:19:31.347Z,14.67
2022-11-19T21:21:59.461Z,13.83
2022-11-19T21:24:27.636Z,13.70
2022-11-19T21:26:57.519Z,12.43
2022-11-19T21:29:25.683Z,13.50
2022-11-19T21:31:53.959Z,12.87
2022-11-19T21:34:23.456Z,12.67
2022-11-19T21:36:51.815Z,14.13
2022-11-19T21:39:21.033Z,13.93
2022-11-19T21:41:49.716Z,13.33
2022-11-19T21:44:21.882Z,13.37
2022-11-19T21:46:50.461Z,13.63
2022-11-19T21:49:19.417Z,13.00
2022-11-19T21:51:47.952Z,14.17
2022-11-19T21:54:17.430Z,16.45
2022-11-19T21:56:46.055Z,13.90
2022-11-19T21:59:14.580Z,14.47
2022-11-19T22:01:44.145Z,13.90
2022-11-19T22:04:13.731Z,13.67
2022-11-19T22:06:42.168Z,14.37
2022-11-19T22:09:10.279Z,13.97
2022-11-19T22:11:38.475Z,13.70
2022-11-19T22:14:08.474Z,13.67
2022-11-19T22:16:39.315Z,13.00
2022-11-19T22:19:09.427Z,14.23
2022-11-19T22:21:39.967Z,13.40
2022-11-19T22:24:08.503Z,13.43
2022-11-19T22:26:37.016Z,13.90
2022-11-19T22:29:07.969Z,13.17
2022-11-19T22:31:36.230Z,14.17
2022-11-19T22:34:04.471Z,13.50
2022-11-19T22:36:34.353Z,13.03
2022-11-19T22:39:02.930Z,13.43
2022-11-19T22:41:31.273Z,13.60
2022-11-19T22:43:59.942Z,13.83
2022-11-19T22:46:28.186Z,13.90
2022-11-19T22:48:56.616Z,12.47
2022-11-19T22:51:26.854Z,13.57
2022-11-19T22:53:57.326Z,13.23
2022-11-19T22:56:27.488Z,12.80
2022-11-19T22:58:57.715Z,11.70
2022-11-19T23:01:28.970Z,11.47
2022-11-19T23:03:59.501Z,12.73
2022-11-19T23:06:28.846Z,12.47
2022-11-19T23:08:58.826Z,13.23
2022-11-19T23:11:44.496Z,13.20
2022-11-19T23:14:14.785Z,13.13
2022-11-19T23:16:44.504Z,14.47
2022-11-19T23:19:13.551Z,13.67
2022-11-19T23:21:43.013Z,14.60
2022-11-19T23:24:13.105Z,13.93
2022-11-19T23:26:41.988Z,13.13
2022-11-19T23:29:10.824Z,14.90
2022-11-19T23:31:40.623Z,14.70
2022-11-19T23:34:09.636Z,15.37
2022-11-19T23:36:40.052Z,15.13
2022-11-19T23:39:13.903Z,13.90
2022-11-19T23:41:43.768Z,14.37
2022-11-19T23:44:12.352Z,13.47
2022-11-19T23:46:47.535Z,14.70
2022-11-19T23:49:16.213Z,13.40
2022-11-19T23:51:44.722Z,14.63
2022-11-19T23:54:14.601Z,12.97
2022-11-19T23:56:45.705Z,13.37
2022-11-19T23:59:13.842Z,14.17
